Salt Lake City, Utah
Traffic Map
Current Weather Conditions
Salt Lake City, Utah
Few Clouds
Few Clouds
78°
Feels Like: 78°
Wind Chill: 78° Ceiling: Unl
Heat Index: 78° Visibility: 10mi
Dew Point: 37° Wind: 7mph
Humidity: 23% Direction: 340° (NNW)
Pressure: 30.07in Gusts: 0mph
Raw Report DataKSLC 012053Z 34006KT 10SM FEW100 FEW200 26/03 A3007 RMK AO2 SLP139 T02560028 58007
Traffic Incident Summary
Active as of:
Severity:
Category:
InformationThere was an issue retrieving the traffic information for this location. Please try a different location or try again shortly.
Advertisements
Track Severe Weather on mobile